Time;durP1;ratioP1;P1;durP2;ratioP2;P2;SDS_P1;SDS_P2;PMS_P1;PMS_P2;Temp;Humidity;BMP_temperature;BMP_pressure;BME280_temperature;BME280_humidity;BME280_pressure;Samples;Min_cycle;Max_cycle;Signal;HPM_P1;HPM_P2
2023/09/16 00:00:34;;;;;;;9.55;4.97;;;;;;;20.89;72.85;99928.34;4976140;28;20042;-87
2023/09/16 00:03:01;;;;;;;7.60;4.15;;;;;;;20.93;73.34;99930.75;4974615;28;20130;-88
2023/09/16 00:05:26;;;;;;;9.43;4.20;;;;;;;20.74;74.36;99935.38;4995391;28;20070;-87
2023/09/16 00:07:56;;;;;;;6.68;4.10;;;;;;;20.77;74.07;99929.84;4987833;28;20092;-87
2023/09/16 00:10:22;;;;;;;10.48;3.45;;;;;;;20.65;74.40;99915.31;4971170;28;20485;-87
2023/09/16 00:12:47;;;;;;;9.20;4.03;;;;;;;20.97;73.58;99936.81;4992845;28;20034;-91
2023/09/16 00:15:13;;;;;;;6.20;3.92;;;;;;;20.89;73.42;99939.91;4992914;28;20037;-87
2023/09/16 00:17:39;;;;;;;7.47;5.10;;;;;;;21.22;73.75;99981.06;4992650;28;20037;-88
2023/09/16 00:20:14;;;;;;;7.30;3.60;;;;;;;20.83;73.56;99924.16;4973953;28;20039;-87
2023/09/16 00:22:41;;;;;;;5.20;4.70;;;;;;;21.27;73.50;100008.50;4970746;28;20069;-86
2023/09/16 00:25:08;;;;;;;6.43;3.80;;;;;;;21.02;73.71;99950.84;4991224;28;20034;-86
2023/09/16 00:27:34;;;;;;;6.68;4.35;;;;;;;20.79;73.18;99913.69;4990952;28;20121;-87
2023/09/16 00:30:00;;;;;;;5.95;3.50;;;;;;;21.29;72.94;100003.94;4983672;28;20069;-85
2023/09/16 00:32:28;;;;;;;4.32;3.22;;;;;;;20.88;72.81;99923.91;4990454;28;20417;-85
2023/09/16 00:34:53;;;;;;;6.82;3.90;;;;;;;20.94;71.64;99936.97;4992535;28;20038;-88
2023/09/16 00:37:19;;;;;;;6.80;3.75;;;;;;;20.78;71.58;99917.34;5007086;28;20136;-87
2023/09/16 00:39:44;;;;;;;4.88;3.47;;;;;;;21.03;71.72;99978.53;4996040;28;20030;-87
2023/09/16 00:42:11;;;;;;;4.50;3.22;;;;;;;20.81;71.72;99949.34;4990885;28;20030;-88
2023/09/16 00:44:36;;;;;;;6.68;2.85;;;;;;;20.88;71.42;99956.97;4986971;28;20033;-88
2023/09/16 00:47:02;;;;;;;4.15;3.00;;;;;;;20.71;72.02;99932.84;4996306;28;20038;-87
2023/09/16 00:49:30;;;;;;;3.75;3.08;;;;;;;20.84;72.16;99960.75;4993164;28;20121;-87
2023/09/16 00:51:59;;;;;;;5.30;3.40;;;;;;;20.68;72.36;99943.75;4992894;28;20465;-87
2023/09/16 00:54:26;;;;;;;4.88;3.25;;;;;;;20.96;72.27;99978.00;4992125;28;20034;-88
2023/09/16 00:56:53;;;;;;;7.40;3.47;;;;;;;20.78;71.68;99938.78;4993075;28;20037;-87
2023/09/16 00:59:22;;;;;;;3.47;2.70;;;;;;;20.80;71.91;99948.44;4992390;28;20493;-86
2023/09/16 01:01:52;;;;;;;4.40;3.38;;;;;;;20.64;72.03;99947.50;4984978;28;20054;-87
2023/09/16 01:04:19;;;;;;;4.90;3.20;;;;;;;20.92;72.51;100000.56;4989255;28;20100;-87
2023/09/16 01:06:46;;;;;;;4.75;3.30;;;;;;;20.68;72.24;99966.06;4992413;28;20026;-86
2023/09/16 01:09:15;;;;;;;6.43;3.05;;;;;;;20.45;72.89;99953.84;4991176;28;20038;-87
2023/09/16 01:11:41;;;;;;;2.67;2.25;;;;;;;20.80;72.36;99985.13;4992509;28;20023;-87
2023/09/16 01:14:11;;;;;;;5.60;3.38;;;;;;;20.79;72.06;99967.28;4971584;28;20069;-87
2023/09/16 01:16:58;;;;;;;3.40;2.75;;;;;;;20.73;72.26;99971.19;4973304;28;20058;-86
2023/09/16 01:19:42;;;;;;;5.18;3.97;;;;;;;20.62;72.16;99952.97;4972715;28;20504;-87
2023/09/16 01:22:10;;;;;;;6.43;3.88;;;;;;;20.83;72.00;99988.50;4976551;28;20027;-86
2023/09/16 01:24:35;;;;;;;3.25;2.63;;;;;;;20.51;72.66;99974.97;4954881;28;20561;-87
2023/09/16 01:27:01;;;;;;;4.32;2.85;;;;;;;20.61;72.45;100003.94;4978329;28;20113;-86
2023/09/16 01:29:29;;;;;;;4.63;3.25;;;;;;;20.42;73.12;99991.50;4991750;28;20109;-87
2023/09/16 01:31:59;;;;;;;5.90;3.30;;;;;;;20.69;73.05;100029.44;4992405;28;20092;-86
2023/09/16 01:34:31;;;;;;;5.70;3.78;;;;;;;20.49;73.51;99998.25;4971102;28;20433;-86
2023/09/16 01:36:58;;;;;;;5.72;3.72;;;;;;;20.53;74.40;100021.28;4979109;28;20030;-87
2023/09/16 01:39:29;;;;;;;9.40;4.18;;;;;;;20.78;74.03;100048.69;4991581;28;20070;-86
2023/09/16 01:41:56;;;;;;;4.97;2.97;;;;;;;20.71;74.49;100037.38;4991749;28;20109;-86
2023/09/16 01:44:22;;;;;;;7.53;4.05;;;;;;;20.47;74.80;100008.19;4991985;28;20504;-86
2023/09/16 01:46:47;;;;;;;5.53;3.95;;;;;;;20.33;75.75;100018.75;4991918;28;20048;-86
2023/09/16 01:49:13;;;;;;;12.00;3.80;;;;;;;20.28;76.32;100018.09;4992020;28;20475;-86
2023/09/16 01:51:38;;;;;;;6.43;3.80;;;;;;;20.39;75.79;100018.44;4992028;28;20026;-86
2023/09/16 01:54:04;;;;;;;3.95;3.10;;;;;;;20.65;75.87;100045.75;4992175;28;20121;-86
2023/09/16 01:56:30;;;;;;;5.53;3.20;;;;;;;20.58;75.79;100042.50;4992299;28;20038;-86
2023/09/16 01:58:56;;;;;;;5.05;3.83;;;;;;;20.38;75.41;100017.56;4992211;28;20037;-86
2023/09/16 02:01:21;;;;;;;5.80;3.92;;;;;;;20.35;75.58;100009.69;4991587;28;20038;-86
2023/09/16 02:03:47;;;;;;;5.50;3.70;;;;;;;20.35;75.75;100015.03;4974355;28;20269;-86
2023/09/16 02:06:13;;;;;;;7.05;4.22;;;;;;;20.58;75.12;100027.25;4991004;28;20052;-86
2023/09/16 02:08:38;;;;;;;7.07;4.68;;;;;;;20.58;74.17;100007.66;4991488;28;20038;-85
2023/09/16 02:11:05;;;;;;;5.30;3.33;;;;;;;20.63;74.41;100027.03;4991119;28;20030;-86
2023/09/16 02:13:32;;;;;;;3.88;2.97;;;;;;;20.67;74.80;100028.66;4991730;28;20036;-86
2023/09/16 02:15:59;;;;;;;4.28;3.88;;;;;;;20.53;74.92;99994.50;4991608;28;20027;-87
2023/09/16 02:18:24;;;;;;;4.47;3.10;;;;;;;20.54;75.02;100001.59;4991536;28;20026;-85
2023/09/16 02:20:50;;;;;;;7.45;4.00;;;;;;;20.76;74.75;100019.28;4991667;28;20420;-86
2023/09/16 02:23:15;;;;;;;5.68;4.03;;;;;;;20.77;74.48;100018.31;4991046;28;20081;-86
2023/09/16 02:25:41;;;;;;;7.43;3.35;;;;;;;21.19;74.04;100053.66;4991052;28;20034;-86
2023/09/16 02:28:06;;;;;;;8.48;5.28;;;;;;;20.89;73.97;100006.94;4991067;28;20026;-86
2023/09/16 02:30:32;;;;;;;4.85;3.72;;;;;;;20.64;74.55;99966.28;4973846;28;20039;-86
2023/09/16 02:32:57;;;;;;;4.97;3.30;;;;;;;20.66;74.97;99984.03;4991395;28;20497;-85
2023/09/16 02:35:23;;;;;;;9.98;5.03;;;;;;;20.60;75.17;99999.53;4991309;28;20106;-84
2023/09/16 02:37:49;;;;;;;7.75;4.45;;;;;;;20.70;75.23;100001.69;4990814;28;20045;-86
2023/09/16 02:40:15;;;;;;;27.88;3.75;;;;;;;20.62;75.04;99994.94;4991400;28;20544;-86
2023/09/16 02:42:40;;;;;;;5.82;4.07;;;;;;;20.93;75.01;100043.38;4991280;28;20088;-86
2023/09/16 02:45:06;;;;;;;4.80;3.17;;;;;;;20.77;75.16;100015.63;4990804;28;20030;-85
2023/09/16 02:47:33;;;;;;;6.97;4.25;;;;;;;20.84;74.91;100029.59;4991206;28;20489;-85
2023/09/16 02:50:00;;;;;;;6.75;3.38;;;;;;;20.87;76.17;100049.06;4991083;28;20026;-86
2023/09/16 02:52:26;;;;;;;4.22;2.95;;;;;;;20.52;75.54;99994.56;4990877;28;20034;-86
2023/09/16 02:54:51;;;;;;;3.80;3.10;;;;;;;20.50;75.74;99989.28;4990763;28;20034;-86
2023/09/16 02:57:17;;;;;;;6.10;4.35;;;;;;;20.52;75.75;100010.66;4991176;28;20035;-86
2023/09/16 02:59:43;;;;;;;4.68;3.67;;;;;;;20.59;75.54;100022.78;4991460;28;20412;-86
2023/09/16 03:02:08;;;;;;;5.28;3.55;;;;;;;20.62;75.83;100021.75;4973937;28;20057;-86
2023/09/16 03:04:34;;;;;;;6.15;3.42;;;;;;;20.44;75.73;99999.47;4990889;28;20042;-94
2023/09/16 03:06:59;;;;;;;8.10;4.00;;;;;;;20.50;75.50;100013.41;4991112;28;20092;-86
2023/09/16 03:09:25;;;;;;;6.45;4.78;;;;;;;20.65;76.17;100046.63;4990902;28;20034;-85
2023/09/16 03:11:50;;;;;;;4.88;3.05;;;;;;;20.27;76.16;99993.13;4990059;28;20044;-85
2023/09/16 03:14:16;;;;;;;6.45;4.00;;;;;;;20.39;76.12;100016.63;4990750;28;20030;-85
2023/09/16 03:16:42;;;;;;;4.75;3.47;;;;;;;20.81;75.72;100059.25;4990648;28;20031;-85
2023/09/16 03:19:08;;;;;;;3.95;2.78;;;;;;;20.33;75.85;100008.03;4990552;28;20030;-86
2023/09/16 03:21:34;;;;;;;6.18;4.10;;;;;;;20.56;75.35;100031.84;4990683;28;20085;-86
2023/09/16 03:23:59;;;;;;;3.97;3.30;;;;;;;20.50;74.78;100010.72;4991304;28;20034;-88
2023/09/16 03:26:26;;;;;;;5.93;4.80;;;;;;;20.44;75.59;100020.91;4990947;28;20413;-88
2023/09/16 03:29:09;;;;;;;;;;;;;;;;;;;;;
2023/09/16 03:31:42;;;;;;;7.45;5.03;;;;;;;20.30;76.22;99997.47;4990655;28;20035;-91
2023/09/16 03:34:30;;;;;;;6.10;3.60;;;;;;;20.73;76.01;100056.97;4973271;28;20535;-89
2023/09/16 03:37:03;;;;;;;5.35;3.58;;;;;;;20.17;75.95;99984.72;4974009;28;20511;-90
2023/09/16 03:39:39;;;;;;;11.52;4.20;;;;;;;20.28;76.81;100023.47;4964517;28;20046;-91
2023/09/16 03:42:06;;;;;;;5.18;3.95;;;;;;;20.14;77.05;100002.72;4975912;28;20080;-89
2023/09/16 03:44:31;;;;;;;4.18;3.15;;;;;;;20.36;76.81;100007.88;4974955;28;20527;-88
2023/09/16 03:46:57;;;;;;;6.35;2.95;;;;;;;20.31;76.25;99977.78;4974652;28;20110;-88
2023/09/16 03:49:22;;;;;;;4.47;3.28;;;;;;;20.34;76.29;99999.03;4975075;28;20201;-89
2023/09/16 03:51:48;;;;;;;7.40;4.50;;;;;;;20.35;76.44;100001.66;4974769;28;20035;-88
2023/09/16 03:54:16;;;;;;;10.55;4.40;;;;;;;20.49;76.19;100005.44;4991347;28;20061;-90
2023/09/16 04:00:07;;;;;;;6.15;4.32;;;;;;;20.60;75.75;100021.81;4994961;28;20089;-89
2023/09/16 04:02:42;;;;;;;5.35;3.35;;;;;;;21.02;75.21;100060.81;4976826;28;20485;-90
2023/09/16 04:05:08;;;;;;;4.35;3.45;;;;;;;20.58;75.85;100024.59;4976397;28;20050;-90
2023/09/16 04:07:34;;;;;;;5.28;4.07;;;;;;;20.45;75.62;99993.13;4994079;28;20109;-89
2023/09/16 04:13:31;;;;;;;5.97;3.22;;;;;;;20.52;76.15;100006.13;4994464;28;20104;-89
2023/09/16 04:15:56;;;;;;;6.10;3.60;;;;;;;20.66;74.56;100039.44;4993507;28;20026;-90
2023/09/16 04:18:22;;;;;;;3.67;2.92;;;;;;;20.23;73.79;100012.13;4993971;28;20089;-88
2023/09/16 04:20:55;;;;;;;5.28;3.63;;;;;;;20.17;72.65;99979.34;4993556;28;20035;-88
2023/09/16 04:23:21;;;;;;;7.78;3.35;;;;;;;20.26;72.00;100028.03;4975939;28;20433;-88
2023/09/16 04:25:53;;;;;;;6.03;3.88;;;;;;;20.51;70.84;100047.31;4993636;28;20842;-88
2023/09/16 04:28:18;;;;;;;5.30;3.67;;;;;;;20.58;70.33;100037.97;4993434;28;20030;-88
2023/09/16 04:30:51;;;;;;;5.05;2.65;;;;;;;20.56;70.42;100037.22;4992765;28;20109;-87
2023/09/16 04:33:20;;;;;;;3.95;2.03;;;;;;;20.74;70.96;100050.63;4975832;28;20030;-87
2023/09/16 04:35:47;;;;;;;3.65;2.65;;;;;;;20.88;70.47;100061.53;4975750;28;20045;-87
2023/09/16 04:38:14;;;;;;;2.70;2.33;;;;;;;20.89;70.60;100039.09;4993551;28;20416;-87
2023/09/16 04:41:09;;;;;;;3.75;3.10;;;;;;;21.32;70.46;100089.63;4994309;28;20026;-89
2023/09/16 04:43:35;;;;;;;2.50;1.63;;;;;;;21.04;69.89;100025.88;4993433;28;20566;-90
2023/09/16 04:46:02;;;;;;;3.83;3.15;;;;;;;21.16;68.30;100017.13;4993550;28;20039;-90
2023/09/16 04:58:37;;;;;;;4.80;3.17;;;;;;;21.44;68.37;100016.50;4993816;28;20161;-89
2023/09/16 05:04:24;;;;;;;6.32;2.55;;;;;;;21.50;68.10;100004.59;4994431;28;20061;-88
2023/09/16 05:10:14;;;;;;;4.90;3.13;;;;;;;21.60;67.39;100042.53;4993514;28;20069;-88
2023/09/16 05:12:40;;;;;;;6.13;3.55;;;;;;;21.61;66.47;100010.25;4993067;28;20030;-90
2023/09/16 05:15:06;;;;;;;5.15;2.80;;;;;;;21.64;66.08;99998.44;4993289;28;20045;-92
2023/09/16 05:17:32;;;;;;;5.53;3.20;;;;;;;21.72;66.25;100006.97;4975186;28;20030;-89
2023/09/16 05:23:26;;;;;;;3.80;3.05;;;;;;;22.25;66.12;100053.19;4993390;28;20545;-90
2023/09/16 05:25:51;;;;;;;4.53;2.60;;;;;;;22.17;67.41;100055.44;4993317;28;20022;-90
2023/09/16 05:31:41;;;;;;;4.95;3.28;;;;;;;22.35;67.65;100040.09;4993479;28;20096;-88
2023/09/16 05:34:07;;;;;;;4.47;3.75;;;;;;;22.11;67.46;100028.94;4993175;28;20133;-87
2023/09/16 05:40:27;;;;;;;5.05;3.72;;;;;;;22.58;68.39;100118.53;4993372;28;20175;-91
2023/09/16 05:42:58;;;;;;;13.20;3.35;;;;;;;22.12;68.16;100041.41;4993133;28;20404;-93
2023/09/16 05:45:31;;;;;;;5.78;3.60;;;;;;;22.20;68.10;100044.53;4975304;28;20554;-95
2023/09/16 05:48:01;;;;;;;5.68;4.43;;;;;;;22.20;68.08;100041.84;4975956;28;20030;-96
2023/09/16 05:50:30;;;;;;;4.60;3.25;;;;;;;22.21;68.17;100037.31;4993467;28;20027;-96
2023/09/16 05:52:55;;;;;;;6.22;3.28;;;;;;;22.34;68.09;100033.88;4980878;28;20023;-93
2023/09/16 05:58:45;;;;;;;6.95;3.65;;;;;;;22.60;68.62;100109.44;4993108;28;20025;-94
2023/09/16 06:01:37;;;;;;;5.20;3.83;;;;;;;22.91;68.30;100130.94;4976505;28;20053;-94
2023/09/16 06:04:03;;;;;;;4.97;3.63;;;;;;;22.24;68.83;100075.63;4973879;28;20053;-90
2023/09/16 06:06:29;;;;;;;6.25;4.05;;;;;;;22.33;69.07;100085.88;4982210;28;20138;-92
2023/09/16 06:08:57;;;;;;;5.25;4.22;;;;;;;22.32;68.77;100084.16;4954756;28;20039;-90
2023/09/16 06:11:26;;;;;;;6.38;4.30;;;;;;;22.43;68.57;100096.97;4972504;28;20101;-92
2023/09/16 06:13:53;;;;;;;11.57;5.60;;;;;;;22.63;68.20;100111.03;4997357;28;20039;-96
2023/09/16 06:16:26;;;;;;;5.70;3.70;;;;;;;22.58;68.61;100111.31;4964943;28;20126;-91
2023/09/16 06:18:53;;;;;;;7.87;5.37;;;;;;;22.11;70.19;100093.41;4954585;28;20114;-91
2023/09/16 06:21:18;;;;;;;6.47;4.18;;;;;;;22.41;70.34;100143.69;4960816;28;20059;-93
2023/09/16 06:23:45;;;;;;;4.47;3.08;;;;;;;22.15;68.92;100092.25;4962998;28;20038;-93
2023/09/16 06:29:15;;;;;;;5.43;3.25;;;;;;;22.67;66.84;100161.00;4980304;28;20596;-92
2023/09/16 06:31:49;;;;;;;4.32;3.60;;;;;;;22.44;66.77;100130.06;4977687;28;20034;-96
2023/09/16 06:34:15;;;;;;;5.00;3.70;;;;;;;22.86;66.38;100187.69;4939195;28;20605;-90
2023/09/16 06:36:48;;;;;;;4.25;2.70;;;;;;;22.55;66.23;100124.94;4978740;28;20042;-93
2023/09/16 06:39:14;;;;;;;4.38;3.70;;;;;;;22.29;65.98;100123.72;4980895;28;20125;-92
2023/09/16 06:41:55;;;;;;;6.28;2.88;;;;;;;22.46;66.42;100115.59;4990073;28;20572;-94
2023/09/16 06:44:21;;;;;;;5.18;4.00;;;;;;;22.82;67.73;100170.00;4964525;28;20062;-91
2023/09/16 06:46:47;;;;;;;5.75;4.22;;;;;;;22.30;70.67;100150.53;4969145;28;20121;-86
2023/09/16 06:49:17;;;;;;;12.23;4.93;;;;;;;22.34;71.86;100162.84;4988568;28;20058;-91
2023/09/16 06:51:47;;;;;;;6.22;4.82;;;;;;;22.31;72.39;100165.72;4983590;28;20504;-96
2023/09/16 06:54:12;;;;;;;6.00;4.35;;;;;;;22.29;72.02;100158.66;4971153;28;20579;-89
2023/09/16 06:56:40;;;;;;;5.72;4.40;;;;;;;22.26;71.38;100157.03;4976660;28;20066;-94
2023/09/16 06:59:05;;;;;;;6.70;4.95;;;;;;;22.31;70.84;100167.53;4973737;28;20062;-93
2023/09/16 07:01:34;;;;;;;6.60;3.83;;;;;;;22.51;71.09;100237.16;4990805;28;20562;-96
2023/09/16 07:04:00;;;;;;;6.20;4.13;;;;;;;22.20;70.38;100153.78;4977699;28;20033;-94
2023/09/16 07:06:29;;;;;;;5.75;4.13;;;;;;;22.54;71.20;100209.25;4982931;28;20043;-95
2023/09/16 07:08:54;;;;;;;6.35;4.90;;;;;;;22.26;71.26;100166.88;4971492;28;20038;-95
2023/09/16 07:11:20;;;;;;;4.78;3.90;;;;;;;22.17;71.77;100149.47;4990026;28;20039;-96
2023/09/16 07:13:47;;;;;;;21.58;7.18;;;;;;;22.43;72.61;100222.41;4963661;28;20468;-93
2023/09/16 07:16:14;;;;;;;9.88;5.57;;;;;;;22.82;72.20;100253.38;4985402;28;20094;-95
2023/09/16 07:18:44;;;;;;;7.00;4.43;;;;;;;22.58;72.28;100200.03;4973282;28;20098;-96
2023/09/16 07:21:10;;;;;;;13.10;6.82;;;;;;;22.91;72.61;100242.09;4982822;28;20042;-93
2023/09/16 07:23:38;;;;;;;8.10;6.40;;;;;;;22.58;73.74;100234.97;4990989;28;20066;-93
2023/09/16 07:26:04;;;;;;;8.07;5.85;;;;;;;22.28;75.11;100183.81;4971989;28;20511;-89
2023/09/16 07:28:30;;;;;;;11.15;5.88;;;;;;;22.36;75.05;100213.81;4996968;28;20030;-93
2023/09/16 07:31:06;;;;;;;7.63;5.40;;;;;;;22.41;75.44;100244.00;5016199;28;20030;-94
2023/09/16 07:33:32;;;;;;;16.95;5.75;;;;;;;21.97;76.05;100183.66;4998358;28;20475;-93
2023/09/16 07:36:00;;;;;;;11.43;6.25;;;;;;;22.16;76.31;100188.03;5001073;28;20042;-89
2023/09/16 07:38:30;;;;;;;8.80;5.95;;;;;;;22.16;76.47;100193.41;4993124;28;20079;-96
2023/09/16 07:40:58;;;;;;;8.20;5.38;;;;;;;22.39;77.14;100247.72;4965854;28;20485;-96
2023/09/16 07:43:33;;;;;;;13.13;6.38;;;;;;;21.95;77.88;100171.28;4990857;28;20257;-94
2023/09/16 07:45:59;;;;;;;8.82;6.07;;;;;;;22.04;78.98;100197.63;4987254;28;20040;-90
2023/09/16 07:48:25;;;;;;;12.20;9.25;;;;;;;22.07;78.85;100215.41;4994434;28;20037;-94
2023/09/16 07:50:50;;;;;;;13.40;7.05;;;;;;;22.09;78.66;100184.81;5018929;28;20125;-93
2023/09/16 07:53:21;;;;;;;10.10;7.10;;;;;;;22.12;79.48;100208.84;4979724;28;20039;-90
2023/09/16 07:55:46;;;;;;;9.18;6.38;;;;;;;22.20;79.87;100219.16;4986564;28;20037;-88
2023/09/16 07:58:12;;;;;;;14.63;5.85;;;;;;;22.07;80.66;100191.22;4964031;28;20035;-93
2023/09/16 08:00:37;;;;;;;9.10;5.15;;;;;;;21.77;82.02;100191.94;4977857;28;20072;-92
2023/09/16 08:03:03;;;;;;;9.23;5.93;;;;;;;22.25;82.02;100251.16;4976286;28;20038;-96
2023/09/16 08:05:29;;;;;;;11.48;7.30;;;;;;;21.92;82.23;100200.97;4997893;28;20077;-91
2023/09/16 08:07:54;;;;;;;14.82;8.30;;;;;;;22.00;82.71;100190.69;5006030;28;20034;-93
2023/09/16 08:10:20;;;;;;;12.02;6.88;;;;;;;22.16;83.16;100236.38;4998608;28;20476;-92
2023/09/16 08:12:45;;;;;;;13.75;7.22;;;;;;;21.94;84.45;100247.44;4990912;28;20093;-95
2023/09/16 08:15:11;;;;;;;9.82;6.95;;;;;;;21.72;83.97;100199.38;4977336;28;20145;-93
2023/09/16 08:17:38;;;;;;;11.82;7.00;;;;;;;21.92;84.79;100217.97;4987633;28;20030;-96
2023/09/16 08:20:05;;;;;;;9.25;6.90;;;;;;;21.95;84.39;100214.25;4984249;28;20039;-94
2023/09/16 08:22:31;;;;;;;11.23;7.63;;;;;;;22.07;84.35;100227.00;4990756;28;20046;-92
2023/09/16 08:24:56;;;;;;;9.55;7.45;;;;;;;21.93;84.66;100191.97;4989702;28;20545;-96
2023/09/16 08:27:22;;;;;;;11.27;7.63;;;;;;;22.17;84.26;100247.06;4964552;28;20089;-96
2023/09/16 08:29:49;;;;;;;11.98;7.38;;;;;;;22.16;83.90;100239.94;4974205;28;20103;-93
2023/09/16 08:32:16;;;;;;;9.13;7.10;;;;;;;22.08;82.99;100225.22;4962083;28;20052;-92
2023/09/16 08:34:41;;;;;;;9.75;6.63;;;;;;;22.39;83.20;100269.22;4976285;28;20040;-94
2023/09/16 08:37:07;;;;;;;12.05;7.88;;;;;;;22.29;84.19;100287.63;4984031;28;20038;-91
2023/09/16 08:39:32;;;;;;;12.50;8.65;;;;;;;22.34;84.47;100289.16;4981443;28;20516;-92
2023/09/16 08:42:21;;;;;;;16.08;8.63;;;;;;;22.36;84.58;100278.31;4982738;28;20042;-96
2023/09/16 08:44:52;;;;;;;14.55;7.35;;;;;;;22.18;85.22;100270.28;4997009;28;20055;-96
2023/09/16 08:47:33;;;;;;;7.10;5.50;;;;;;;22.22;84.95;100283.56;4964301;28;20058;-90
2023/09/16 08:50:10;;;;;;;15.05;7.53;;;;;;;22.28;84.75;100289.47;4978513;28;20521;-92
2023/09/16 08:52:38;;;;;;;10.25;8.13;;;;;;;22.43;83.95;100289.59;4973045;28;20030;-92
2023/09/16 08:55:07;;;;;;;7.75;6.03;;;;;;;22.48;84.22;100306.34;4960577;28;20039;-89
2023/09/16 08:57:33;;;;;;;10.10;5.97;;;;;;;22.62;83.82;100294.84;4972675;28;20062;-90
2023/09/16 08:59:59;;;;;;;12.73;7.20;;;;;;;22.52;84.15;100291.78;4973028;28;20536;-92
2023/09/16 09:02:27;;;;;;;12.10;7.38;;;;;;;22.65;83.89;100282.09;4971915;28;20062;-94
2023/09/16 09:04:53;;;;;;;23.10;8.63;;;;;;;23.01;82.95;100309.69;4953719;28;20043;-93
2023/09/16 09:07:20;;;;;;;8.70;5.85;;;;;;;22.99;82.45;100282.00;4957348;28;20218;-91
2023/09/16 09:09:47;;;;;;;11.18;7.45;;;;;;;22.84;82.75;100260.38;4972280;28;20034;-90
2023/09/16 09:12:13;;;;;;;11.45;7.20;;;;;;;23.09;82.30;100285.91;4972147;28;20057;-95
2023/09/16 09:14:43;;;;;;;11.93;7.40;;;;;;;23.36;81.27;100290.66;4974308;28;20386;-94
2023/09/16 09:17:10;;;;;;;11.57;6.43;;;;;;;23.32;80.83;100265.72;4961034;28;20093;-95
2023/09/16 09:19:37;;;;;;;18.48;7.70;;;;;;;23.27;80.28;100256.22;4981415;28;20046;-93
2023/09/16 09:22:03;;;;;;;11.80;5.25;;;;;;;23.30;79.48;100283.81;4992706;28;20029;-86
2023/09/16 09:24:28;;;;;;;8.98;5.63;;;;;;;22.97;78.52;100216.66;5012155;28;20195;-89
2023/09/16 09:26:54;;;;;;;11.48;7.50;;;;;;;22.92;78.32;100195.41;5005678;28;20037;-93
2023/09/16 09:29:22;;;;;;;8.75;5.93;;;;;;;23.23;78.98;100266.28;4992224;28;20034;-94
2023/09/16 09:31:48;;;;;;;10.88;8.05;;;;;;;22.88;78.90;100194.72;4994373;28;20033;-95
2023/09/16 09:34:17;;;;;;;14.60;8.80;;;;;;;22.96;78.14;100229.25;4995695;28;20037;-92
2023/09/16 09:36:46;;;;;;;14.48;7.25;;;;;;;22.97;79.52;100217.53;5006889;28;20033;-92
2023/09/16 09:39:12;;;;;;;11.63;7.32;;;;;;;23.12;79.89;100233.75;4990006;28;20039;-95
2023/09/16 09:41:46;;;;;;;9.77;7.03;;;;;;;23.22;80.92;100253.78;4990997;28;20030;-95
2023/09/16 09:44:13;;;;;;;10.57;7.43;;;;;;;22.82;81.33;100183.47;4956805;28;20027;-92
2023/09/16 09:46:42;;;;;;;9.20;6.65;;;;;;;23.22;81.58;100267.25;4960729;28;20035;-96
2023/09/16 09:49:10;;;;;;;15.45;7.43;;;;;;;22.71;82.12;100179.56;4955885;28;20113;-95
2023/09/16 09:51:37;;;;;;;11.00;7.20;;;;;;;23.30;82.14;100264.97;4954083;28;20487;-89
2023/09/16 09:54:03;;;;;;;11.95;7.80;;;;;;;23.11;81.95;100226.63;4960444;28;20030;-95
2023/09/16 09:56:28;;;;;;;16.63;9.05;;;;;;;22.89;81.89;100174.06;4977108;28;20038;-90
2023/09/16 09:58:54;;;;;;;11.07;7.55;;;;;;;23.12;82.26;100218.47;4971561;28;20031;-96
2023/09/16 10:01:21;;;;;;;11.85;7.30;;;;;;;23.17;82.62;100218.19;4953569;28;20027;-93
2023/09/16 10:03:48;;;;;;;11.25;8.13;;;;;;;23.39;82.40;100212.41;4971738;28;20528;-93
2023/09/16 10:06:19;;;;;;;14.57;7.88;;;;;;;23.29;82.19;100184.31;4978458;28;20047;-89
2023/09/16 10:08:45;;;;;;;8.80;6.63;;;;;;;23.42;82.28;100204.16;4970587;28;20059;-89
2023/09/16 10:11:11;;;;;;;8.65;6.60;;;;;;;23.64;81.16;100208.25;4971303;28;20529;-90
2023/09/16 10:13:36;;;;;;;10.73;6.30;;;;;;;24.04;80.33;100257.84;4969522;28;20062;-87
2023/09/16 10:16:05;;;;;;;5.47;4.82;;;;;;;23.86;79.07;100218.56;4970663;28;20069;-91
2023/09/16 10:18:31;;;;;;;16.70;6.57;;;;;;;23.87;77.48;100212.22;4953212;28;20026;-92
2023/09/16 10:20:57;;;;;;;19.80;5.32;;;;;;;24.07;77.53;100217.22;4956986;28;20043;-89
2023/09/16 10:23:23;;;;;;;9.93;5.93;;;;;;;23.91;77.38;100182.31;4973002;28;20041;-88
2023/09/16 10:25:50;;;;;;;6.90;5.55;;;;;;;23.99;75.38;100202.50;4975254;28;20046;-89
2023/09/16 10:28:16;;;;;;;12.48;6.63;;;;;;;24.13;76.50;100208.75;4984650;28;20493;-93
2023/09/16 10:30:42;;;;;;;14.55;7.13;;;;;;;24.02;75.62;100172.66;4972665;28;20049;-91
2023/09/16 10:33:10;;;;;;;9.27;5.88;;;;;;;24.17;75.11;100169.00;4980868;28;20026;-90
2023/09/16 10:35:40;;;;;;;11.30;6.30;;;;;;;24.31;73.58;100209.41;4963393;28;20022;-91
2023/09/16 10:38:10;;;;;;;15.40;5.97;;;;;;;24.10;72.33;100178.47;4981347;28;20042;-95
2023/09/16 10:40:37;;;;;;;11.75;7.28;;;;;;;24.35;71.16;100199.28;4982635;28;20035;-95
2023/09/16 10:43:04;;;;;;;12.27;4.80;;;;;;;24.40;72.42;100210.63;4961414;28;20034;-89
2023/09/16 10:45:31;;;;;;;9.00;6.88;;;;;;;24.15;71.25;100224.81;4976400;28;20040;-94
2023/09/16 10:47:59;;;;;;;62.60;48.78;;;;;;;24.02;71.40;100175.34;4959439;28;20031;-90
2023/09/16 10:50:25;;;;;;;65.70;43.83;;;;;;;24.14;70.76;100155.72;4971900;28;20038;-88
2023/09/16 10:53:05;;;;;;;698.17;486.63;;;;;;;24.86;71.33;100232.91;4975899;28;20417;-90
2023/09/16 10:55:49;;;;;;;670.78;504.35;;;;;;;25.18;72.45;100233.47;4986610;28;20526;-90
2023/09/16 10:58:26;;;;;;;714.97;503.48;;;;;;;25.10;72.86;100195.31;4982349;28;20030;-93
2023/09/16 11:00:54;;;;;;;1999.90;942.25;;;;;;;25.23;71.41;100146.78;4994388;28;20038;-91
2023/09/16 11:03:24;;;;;;;478.95;259.45;;;;;;;25.21;65.84;100149.59;4994823;28;20034;-92
2023/09/16 11:05:50;;;;;;;128.73;89.75;;;;;;;25.57;65.46;100125.56;4966392;28;20061;-93
2023/09/16 11:08:16;;;;;;;22.65;10.15;;;;;;;25.79;66.24;100151.88;4977853;28;20381;-92
2023/09/16 11:10:42;;;;;;;8.05;5.43;;;;;;;25.50;64.62;100115.19;4968240;28;20044;-91
2023/09/16 11:13:08;;;;;;;9.30;6.90;;;;;;;25.73;64.30;100172.97;4983713;28;20537;-94
2023/09/16 11:15:34;;;;;;;13.32;8.85;;;;;;;25.95;65.00;100152.53;4983981;28;20132;-92
2023/09/16 11:18:04;;;;;;;8.80;7.13;;;;;;;25.76;65.04;100144.84;4978834;28;20034;-96
2023/09/16 11:20:33;;;;;;;14.80;7.85;;;;;;;25.83;64.59;100151.56;4969917;28;20042;-93
2023/09/16 11:23:05;;;;;;;9.45;7.20;;;;;;;25.81;61.91;100139.13;4963386;28;20035;-92
2023/09/16 11:25:38;;;;;;;11.27;8.18;;;;;;;26.06;61.96;100160.75;4986782;28;20063;-95
2023/09/16 11:28:22;;;;;;;14.15;7.97;;;;;;;25.96;62.69;100124.50;4985351;28;20041;-96
2023/09/16 11:30:56;;;;;;;10.95;6.38;;;;;;;26.00;60.96;100125.19;4977411;28;20581;-90
2023/09/16 11:33:26;;;;;;;8.65;6.45;;;;;;;26.07;60.43;100142.69;5003307;28;20031;-95
2023/09/16 11:36:17;;;;;;;9.45;5.57;;;;;;;26.50;61.18;100163.84;4997791;28;20104;-95
2023/09/16 11:39:08;;;;;;;16.40;6.20;;;;;;;26.59;60.51;100181.25;4976440;28;20045;-91
2023/09/16 11:41:35;;;;;;;7.88;5.95;;;;;;;26.21;60.42;100136.25;4974297;28;20030;-93
2023/09/16 11:44:02;;;;;;;9.73;5.78;;;;;;;26.22;59.89;100133.44;4980164;28;20189;-86
2023/09/16 11:46:29;;;;;;;6.30;4.25;;;;;;;26.05;60.23;100133.81;5003424;28;20040;-89
2023/09/16 11:49:05;;;;;;;8.82;6.03;;;;;;;26.11;61.51;100133.38;5003644;28;20061;-92
2023/09/16 11:51:36;;;;;;;7.88;5.72;;;;;;;26.20;62.41;100121.03;5007723;28;20031;-89
2023/09/16 11:54:11;;;;;;;12.55;6.70;;;;;;;26.21;62.03;100112.81;4981830;28;20149;-96
2023/09/16 11:56:40;;;;;;;5.88;4.57;;;;;;;26.04;62.47;100121.28;4993792;28;20038;-95
2023/09/16 11:59:06;;;;;;;7.82;6.13;;;;;;;25.74;61.90;100109.84;4974174;28;20050;-94
2023/09/16 12:01:35;;;;;;;7.10;5.57;;;;;;;25.48;61.61;100054.13;4981881;28;20045;-91
2023/09/16 12:04:07;;;;;;;7.88;5.65;;;;;;;25.53;61.87;100084.38;4956762;28;20030;-93
2023/09/16 12:06:35;;;;;;;9.48;5.43;;;;;;;25.50;61.73;100066.56;4956986;28;20057;-92
2023/09/16 12:09:02;;;;;;;11.57;5.63;;;;;;;25.62;61.82;100063.94;4989688;28;20041;-93